sensor_id;sensor_type;location;lat;lon;timestamp;noise_LAeq;noise_LA_min;noise_LA_max;noise_LA01;noise_LA95
61249;Laerm;47119;49.130;9.218;2023-03-23T00:01:20;39.42;29.84;51.34;;
61249;Laerm;47119;49.130;9.218;2023-03-23T00:03:49;38.10;30.39;50.62;;
61249;Laerm;47119;49.130;9.218;2023-03-23T00:06:19;33.97;29.67;44.46;;
61249;Laerm;47119;49.130;9.218;2023-03-23T00:08:51;37.18;28.99;52.97;;
61249;Laerm;47119;49.130;9.218;2023-03-23T00:11:26;33.55;28.61;45.89;;
61249;Laerm;47119;49.130;9.218;2023-03-23T00:13:56;36.29;28.82;48.13;;
61249;Laerm;47119;49.130;9.218;2023-03-23T00:16:28;37.62;29.80;47.29;;
61249;Laerm;47119;49.130;9.218;2023-03-23T00:19:00;44.16;29.69;61.39;;
61249;Laerm;47119;49.130;9.218;2023-03-23T00:21:32;35.12;29.21;64.02;;
61249;Laerm;47119;49.130;9.218;2023-03-23T00:24:04;34.35;30.03;44.06;;
61249;Laerm;47119;49.130;9.218;2023-03-23T00:26:34;42.73;29.85;58.25;;
61249;Laerm;47119;49.130;9.218;2023-03-23T00:29:02;35.72;29.68;45.56;;
61249;Laerm;47119;49.130;9.218;2023-03-23T00:31:31;38.73;29.64;52.89;;
61249;Laerm;47119;49.130;9.218;2023-03-23T00:33:59;37.66;30.08;49.93;;
61249;Laerm;47119;49.130;9.218;2023-03-23T00:36:31;42.34;29.74;58.73;;
61249;Laerm;47119;49.130;9.218;2023-03-23T00:39:00;45.78;31.04;64.14;;
61249;Laerm;47119;49.130;9.218;2023-03-23T00:41:30;38.98;29.51;54.33;;
61249;Laerm;47119;49.130;9.218;2023-03-23T00:43:59;35.24;29.78;44.96;;
61249;Laerm;47119;49.130;9.218;2023-03-23T00:46:29;36.58;28.75;49.16;;
61249;Laerm;47119;49.130;9.218;2023-03-23T00:48:56;33.69;28.72;43.80;;
61249;Laerm;47119;49.130;9.218;2023-03-23T00:51:25;38.79;29.12;56.40;;
61249;Laerm;47119;49.130;9.218;2023-03-23T00:53:54;32.75;29.21;41.18;;
61249;Laerm;47119;49.130;9.218;2023-03-23T00:56:23;44.80;28.93;64.22;;
61249;Laerm;47119;49.130;9.218;2023-03-23T00:58:52;32.89;29.42;44.65;;
61249;Laerm;47119;49.130;9.218;2023-03-23T01:01:21;38.36;29.29;50.44;;
61249;Laerm;47119;49.130;9.218;2023-03-23T01:03:50;33.50;29.79;42.85;;
61249;Laerm;47119;49.130;9.218;2023-03-23T01:06:20;43.34;30.07;64.15;;
61249;Laerm;47119;49.130;9.218;2023-03-23T01:08:47;36.58;28.98;51.25;;
61249;Laerm;47119;49.130;9.218;2023-03-23T01:11:16;33.28;28.90;40.55;;
61249;Laerm;47119;49.130;9.218;2023-03-23T01:13:43;36.44;29.28;49.97;;
61249;Laerm;47119;49.130;9.218;2023-03-23T01:16:14;33.25;29.15;43.63;;
61249;Laerm;47119;49.130;9.218;2023-03-23T01:18:40;35.96;29.00;47.93;;
61249;Laerm;47119;49.130;9.218;2023-03-23T01:21:11;32.27;28.81;45.01;;
61249;Laerm;47119;49.130;9.218;2023-03-23T01:23:39;37.69;29.30;53.40;;
61249;Laerm;47119;49.130;9.218;2023-03-23T01:26:07;33.78;29.35;46.21;;
61249;Laerm;47119;49.130;9.218;2023-03-23T01:28:36;42.60;29.02;60.91;;
61249;Laerm;47119;49.130;9.218;2023-03-23T01:31:04;33.59;28.89;45.52;;
61249;Laerm;47119;49.130;9.218;2023-03-23T01:33:35;44.26;28.90;63.96;;
61249;Laerm;47119;49.130;9.218;2023-03-23T01:36:04;34.78;29.07;44.84;;
61249;Laerm;47119;49.130;9.218;2023-03-23T01:38:32;33.13;28.79;45.08;;
61249;Laerm;47119;49.130;9.218;2023-03-23T01:40:59;32.15;28.51;40.85;;
61249;Laerm;47119;49.130;9.218;2023-03-23T01:43:26;38.96;29.46;55.21;;
61249;Laerm;47119;49.130;9.218;2023-03-23T01:45:56;37.16;28.99;57.89;;
61249;Laerm;47119;49.130;9.218;2023-03-23T01:48:28;32.70;29.21;44.79;;
61249;Laerm;47119;49.130;9.218;2023-03-23T01:50:59;38.74;29.01;50.78;;
61249;Laerm;47119;49.130;9.218;2023-03-23T01:53:32;37.75;28.89;51.90;;
61249;Laerm;47119;49.130;9.218;2023-03-23T01:56:02;37.14;29.06;49.75;;
61249;Laerm;47119;49.130;9.218;2023-03-23T01:58:34;33.93;29.67;43.60;;
61249;Laerm;47119;49.130;9.218;2023-03-23T02:01:07;46.79;29.70;67.82;;
61249;Laerm;47119;49.130;9.218;2023-03-23T02:03:42;44.89;29.16;65.43;;
61249;Laerm;47119;49.130;9.218;2023-03-23T02:06:21;37.60;29.01;53.09;;
61249;Laerm;47119;49.130;9.218;2023-03-23T02:09:06;42.85;29.50;61.66;;
61249;Laerm;47119;49.130;9.218;2023-03-23T02:11:34;39.07;29.62;51.69;;
61249;Laerm;47119;49.130;9.218;2023-03-23T02:14:02;36.36;30.06;50.36;;
61249;Laerm;47119;49.130;9.218;2023-03-23T02:16:34;37.42;30.30;52.11;;
61249;Laerm;47119;49.130;9.218;2023-03-23T02:19:24;37.68;30.89;50.49;;
61249;Laerm;47119;49.130;9.218;2023-03-23T02:24:59;43.96;30.70;64.44;;
61249;Laerm;47119;49.130;9.218;2023-03-23T02:27:42;46.01;31.38;66.22;;
61249;Laerm;47119;49.130;9.218;2023-03-23T02:30:24;36.32;31.16;50.91;;
61249;Laerm;47119;49.130;9.218;2023-03-23T02:33:38;37.44;30.88;49.32;;
61249;Laerm;47119;49.130;9.218;2023-03-23T02:36:14;33.84;29.60;49.75;;
61249;Laerm;47119;49.130;9.218;2023-03-23T02:38:53;33.94;30.19;47.18;;
61249;Laerm;47119;49.130;9.218;2023-03-23T02:41:25;45.78;30.44;68.72;;
61249;Laerm;47119;49.130;9.218;2023-03-23T02:43:55;39.98;30.11;54.98;;
61249;Laerm;47119;49.130;9.218;2023-03-23T02:46:24;45.04;30.65;62.80;;
61249;Laerm;47119;49.130;9.218;2023-03-23T02:48:55;37.19;30.43;51.15;;
61249;Laerm;47119;49.130;9.218;2023-03-23T02:51:26;35.81;29.80;51.00;;
61249;Laerm;47119;49.130;9.218;2023-03-23T02:53:55;44.77;31.08;62.65;;
61249;Laerm;47119;49.130;9.218;2023-03-23T02:56:23;32.75;29.61;38.25;;
61249;Laerm;47119;49.130;9.218;2023-03-23T02:58:54;45.62;30.42;66.04;;
61249;Laerm;47119;49.130;9.218;2023-03-23T03:01:55;43.26;30.71;61.17;;
61249;Laerm;47119;49.130;9.218;2023-03-23T03:04:27;41.22;30.40;55.75;;
61249;Laerm;47119;49.130;9.218;2023-03-23T03:07:04;36.37;30.24;53.19;;
61249;Laerm;47119;49.130;9.218;2023-03-23T03:09:41;43.17;30.29;59.65;;
61249;Laerm;47119;49.130;9.218;2023-03-23T03:12:14;45.15;30.40;64.50;;
61249;Laerm;47119;49.130;9.218;2023-03-23T03:14:48;36.43;29.61;49.00;;
61249;Laerm;47119;49.130;9.218;2023-03-23T03:17:23;35.81;29.84;46.39;;
61249;Laerm;47119;49.130;9.218;2023-03-23T03:19:55;36.66;30.05;48.76;;
61249;Laerm;47119;49.130;9.218;2023-03-23T03:22:28;38.21;29.70;49.88;;
61249;Laerm;47119;49.130;9.218;2023-03-23T03:24:59;37.14;30.54;48.94;;
61249;Laerm;47119;49.130;9.218;2023-03-23T03:27:28;38.07;30.23;48.53;;
61249;Laerm;47119;49.130;9.218;2023-03-23T03:30:12;43.73;31.81;55.51;;
61249;Laerm;47119;49.130;9.218;2023-03-23T03:32:44;43.04;32.25;63.49;;
61249;Laerm;47119;49.130;9.218;2023-03-23T03:35:16;41.75;31.67;54.92;;
61249;Laerm;47119;49.130;9.218;2023-03-23T03:37:44;46.06;30.91;65.26;;
61249;Laerm;47119;49.130;9.218;2023-03-23T03:40:14;43.44;31.15;62.30;;
61249;Laerm;47119;49.130;9.218;2023-03-23T03:42:44;40.99;31.86;53.57;;
61249;Laerm;47119;49.130;9.218;2023-03-23T03:45:13;39.29;31.68;52.30;;
61249;Laerm;47119;49.130;9.218;2023-03-23T03:47:41;40.73;32.13;52.18;;
61249;Laerm;47119;49.130;9.218;2023-03-23T03:50:10;45.19;32.16;63.70;;
61249;Laerm;47119;49.130;9.218;2023-03-23T03:52:39;45.25;32.24;59.32;;
61249;Laerm;47119;49.130;9.218;2023-03-23T03:55:08;43.82;33.34;56.59;;
61249;Laerm;47119;49.130;9.218;2023-03-23T03:57:38;46.76;32.52;63.39;;
61249;Laerm;47119;49.130;9.218;2023-03-23T04:00:23;48.41;33.59;70.28;;
61249;Laerm;47119;49.130;9.218;2023-03-23T04:02:50;46.11;33.14;64.64;;
61249;Laerm;47119;49.130;9.218;2023-03-23T04:05:38;48.28;33.25;64.82;;
61249;Laerm;47119;49.130;9.218;2023-03-23T04:08:08;43.27;33.32;53.81;;
61249;Laerm;47119;49.130;9.218;2023-03-23T04:10:37;40.11;33.26;49.48;;
61249;Laerm;47119;49.130;9.218;2023-03-23T04:13:06;47.16;33.86;61.93;;
61249;Laerm;47119;49.130;9.218;2023-03-23T04:15:33;45.52;35.93;54.88;;
61249;Laerm;47119;49.130;9.218;2023-03-23T04:18:00;47.02;33.61;62.18;;
61249;Laerm;47119;49.130;9.218;2023-03-23T04:20:28;50.50;34.90;65.84;;
61249;Laerm;47119;49.130;9.218;2023-03-23T04:22:56;47.07;35.06;62.01;;
61249;Laerm;47119;49.130;9.218;2023-03-23T04:25:26;51.12;37.04;68.04;;
61249;Laerm;47119;49.130;9.218;2023-03-23T04:27:54;45.82;36.33;54.89;;
61249;Laerm;47119;49.130;9.218;2023-03-23T04:30:27;46.50;33.96;62.00;;
61249;Laerm;47119;49.130;9.218;2023-03-23T04:33:11;48.35;35.24;63.79;;
61249;Laerm;47119;49.130;9.218;2023-03-23T04:35:43;48.00;35.57;66.04;;
61249;Laerm;47119;49.130;9.218;2023-03-23T04:38:29;45.54;36.49;53.27;;
61249;Laerm;47119;49.130;9.218;2023-03-23T04:41:04;49.58;35.48;68.40;;
61249;Laerm;47119;49.130;9.218;2023-03-23T04:43:40;48.04;34.89;65.09;;
61249;Laerm;47119;49.130;9.218;2023-03-23T04:46:25;49.52;35.65;66.62;;
61249;Laerm;47119;49.130;9.218;2023-03-23T04:48:55;45.42;35.55;59.85;;
61249;Laerm;47119;49.130;9.218;2023-03-23T04:51:28;50.40;35.32;65.71;;
61249;Laerm;47119;49.130;9.218;2023-03-23T04:54:01;49.13;36.67;64.17;;
61249;Laerm;47119;49.130;9.218;2023-03-23T04:56:36;51.94;35.93;67.72;;
61249;Laerm;47119;49.130;9.218;2023-03-23T04:59:09;50.48;37.61;62.94;;
61249;Laerm;47119;49.130;9.218;2023-03-23T05:01:43;45.37;37.35;52.46;;
61249;Laerm;47119;49.130;9.218;2023-03-23T05:04:17;48.52;36.01;63.90;;
61249;Laerm;47119;49.130;9.218;2023-03-23T05:06:55;54.11;39.29;69.31;;
61249;Laerm;47119;49.130;9.218;2023-03-23T05:09:26;52.98;35.56;69.56;;
61249;Laerm;47119;49.130;9.218;2023-03-23T05:11:55;49.68;39.16;65.91;;
61249;Laerm;47119;49.130;9.218;2023-03-23T05:14:24;49.84;38.95;74.34;;
61249;Laerm;47119;49.130;9.218;2023-03-23T05:17:03;52.09;35.83;66.91;;
61249;Laerm;47119;49.130;9.218;2023-03-23T05:19:30;50.95;38.79;65.00;;
61249;Laerm;47119;49.130;9.218;2023-03-23T05:22:00;54.10;37.65;68.03;;
61249;Laerm;47119;49.130;9.218;2023-03-23T05:24:31;53.18;42.14;64.04;;
61249;Laerm;47119;49.130;9.218;2023-03-23T05:27:05;53.53;42.81;67.89;;
61249;Laerm;47119;49.130;9.218;2023-03-23T05:29:34;53.98;38.18;72.76;;
61249;Laerm;47119;49.130;9.218;2023-03-23T05:32:03;55.23;41.78;71.14;;
61249;Laerm;47119;49.130;9.218;2023-03-23T05:34:34;50.53;38.36;62.17;;
61249;Laerm;47119;49.130;9.218;2023-03-23T05:37:02;53.14;40.48;65.56;;
61249;Laerm;47119;49.130;9.218;2023-03-23T05:39:42;51.98;41.29;64.37;;
61249;Laerm;47119;49.130;9.218;2023-03-23T05:42:32;55.94;40.76;81.07;;
61249;Laerm;47119;49.130;9.218;2023-03-23T05:45:07;51.79;40.54;64.74;;
61249;Laerm;47119;49.130;9.218;2023-03-23T05:47:36;53.51;42.96;64.67;;
61249;Laerm;47119;49.130;9.218;2023-03-23T05:50:09;53.93;38.89;68.10;;
61249;Laerm;47119;49.130;9.218;2023-03-23T05:52:37;52.61;40.59;65.65;;
61249;Laerm;47119;49.130;9.218;2023-03-23T05:55:08;54.19;41.24;66.11;;
61249;Laerm;47119;49.130;9.218;2023-03-23T05:57:39;55.68;43.70;72.17;;
61249;Laerm;47119;49.130;9.218;2023-03-23T06:00:13;52.98;41.40;66.79;;
61249;Laerm;47119;49.130;9.218;2023-03-23T06:02:49;54.90;42.29;69.74;;
61249;Laerm;47119;49.130;9.218;2023-03-23T06:05:26;55.18;42.63;68.55;;
61249;Laerm;47119;49.130;9.218;2023-03-23T06:07:54;48.40;40.93;58.47;;
61249;Laerm;47119;49.130;9.218;2023-03-23T06:10:21;54.03;42.73;66.66;;
61249;Laerm;47119;49.130;9.218;2023-03-23T06:12:57;54.61;42.83;65.90;;
61249;Laerm;47119;49.130;9.218;2023-03-23T06:15:34;53.31;43.43;65.95;;
61249;Laerm;47119;49.130;9.218;2023-03-23T06:18:05;55.48;46.63;67.40;;
61249;Laerm;47119;49.130;9.218;2023-03-23T06:20:41;52.88;43.36;64.81;;
61249;Laerm;47119;49.130;9.218;2023-03-23T06:23:32;51.84;41.86;64.55;;
61249;Laerm;47119;49.130;9.218;2023-03-23T06:26:04;54.39;45.01;63.97;;
61249;Laerm;47119;49.130;9.218;2023-03-23T06:28:34;53.58;44.60;63.74;;
61249;Laerm;47119;49.130;9.218;2023-03-23T06:31:02;54.40;43.79;70.95;;
61249;Laerm;47119;49.130;9.218;2023-03-23T06:33:32;54.91;44.48;69.42;;
61249;Laerm;47119;49.130;9.218;2023-03-23T06:36:18;55.60;45.01;66.63;;
61249;Laerm;47119;49.130;9.218;2023-03-23T06:39:04;55.52;44.70;66.37;;
61249;Laerm;47119;49.130;9.218;2023-03-23T06:41:47;55.66;44.17;67.64;;
61249;Laerm;47119;49.130;9.218;2023-03-23T06:44:15;54.68;46.30;66.87;;
61249;Laerm;47119;49.130;9.218;2023-03-23T06:46:42;55.18;46.00;65.85;;
61249;Laerm;47119;49.130;9.218;2023-03-23T06:49:33;54.29;44.58;64.40;;
61249;Laerm;47119;49.130;9.218;2023-03-23T06:52:12;53.44;45.53;65.46;;
61249;Laerm;47119;49.130;9.218;2023-03-23T06:54:41;55.15;41.87;74.19;;
61249;Laerm;47119;49.130;9.218;2023-03-23T06:57:10;55.96;44.40;70.66;;
61249;Laerm;47119;49.130;9.218;2023-03-23T06:59:39;57.22;46.41;68.56;;
61249;Laerm;47119;49.130;9.218;2023-03-23T07:02:09;58.59;47.09;69.00;;
61249;Laerm;47119;49.130;9.218;2023-03-23T07:04:40;56.68;47.27;74.79;;
61249;Laerm;47119;49.130;9.218;2023-03-23T07:07:14;57.33;48.09;72.47;;
61249;Laerm;47119;49.130;9.218;2023-03-23T07:30:09;54.36;43.07;67.06;;
61249;Laerm;47119;49.130;9.218;2023-03-23T07:32:39;54.12;44.00;65.07;;
61249;Laerm;47119;49.130;9.218;2023-03-23T07:35:09;53.28;45.64;63.42;;
61249;Laerm;47119;49.130;9.218;2023-03-23T07:37:55;52.87;41.98;66.01;;
61249;Laerm;47119;49.130;9.218;2023-03-23T07:40:22;56.76;43.75;77.31;;
61249;Laerm;47119;49.130;9.218;2023-03-23T07:43:08;55.31;43.09;67.56;;
61249;Laerm;47119;49.130;9.218;2023-03-23T07:45:59;54.96;44.07;70.25;;
61249;Laerm;47119;49.130;9.218;2023-03-23T07:48:35;53.48;44.01;70.39;;
61249;Laerm;47119;49.130;9.218;2023-03-23T07:51:04;56.87;46.20;72.26;;
61249;Laerm;47119;49.130;9.218;2023-03-23T07:53:37;55.59;44.99;68.04;;
61249;Laerm;47119;49.130;9.218;2023-03-23T07:56:24;54.11;43.47;65.13;;
61249;Laerm;47119;49.130;9.218;2023-03-23T07:58:58;53.88;43.70;65.64;;
61249;Laerm;47119;49.130;9.218;2023-03-23T08:01:30;55.02;43.66;66.62;;
61249;Laerm;47119;49.130;9.218;2023-03-23T08:04:17;53.70;44.31;67.75;;
61249;Laerm;47119;49.130;9.218;2023-03-23T08:07:06;53.07;43.19;68.20;;
61249;Laerm;47119;49.130;9.218;2023-03-23T08:09:49;56.34;41.68;72.49;;
61249;Laerm;47119;49.130;9.218;2023-03-23T08:12:27;55.17;46.35;68.06;;
61249;Laerm;47119;49.130;9.218;2023-03-23T08:15:20;53.55;44.85;66.82;;
61249;Laerm;47119;49.130;9.218;2023-03-23T08:18:07;55.68;42.65;72.66;;
61249;Laerm;47119;49.130;9.218;2023-03-23T08:20:53;54.58;46.97;66.31;;
61249;Laerm;47119;49.130;9.218;2023-03-23T08:23:26;56.51;44.54;70.73;;
61249;Laerm;47119;49.130;9.218;2023-03-23T08:26:02;54.50;44.00;68.12;;
61249;Laerm;47119;49.130;9.218;2023-03-23T08:28:52;59.20;43.59;74.79;;
61249;Laerm;47119;49.130;9.218;2023-03-23T08:31:38;54.54;44.58;65.99;;
61249;Laerm;47119;49.130;9.218;2023-03-23T08:34:32;53.73;42.82;64.81;;
61249;Laerm;47119;49.130;9.218;2023-03-23T08:37:40;52.56;41.70;64.43;;
61249;Laerm;47119;49.130;9.218;2023-03-23T08:40:36;55.05;44.15;66.47;;
61249;Laerm;47119;49.130;9.218;2023-03-23T08:43:21;53.81;47.25;64.90;;
61249;Laerm;47119;49.130;9.218;2023-03-23T08:46:21;54.73;45.37;67.31;;
61249;Laerm;47119;49.130;9.218;2023-03-23T08:53:20;53.51;44.74;68.45;;
61249;Laerm;47119;49.130;9.218;2023-03-23T08:56:12;53.74;43.80;67.13;;
61249;Laerm;47119;49.130;9.218;2023-03-23T08:58:59;54.43;44.18;66.99;;
61249;Laerm;47119;49.130;9.218;2023-03-23T09:01:47;56.09;47.75;68.18;;
61249;Laerm;47119;49.130;9.218;2023-03-23T09:04:36;55.94;47.13;65.15;;
61249;Laerm;47119;49.130;9.218;2023-03-23T09:07:29;55.83;48.75;69.43;;
61249;Laerm;47119;49.130;9.218;2023-03-23T09:09:57;54.33;48.26;62.98;;
61249;Laerm;47119;49.130;9.218;2023-03-23T09:12:26;55.11;47.93;69.95;;
61249;Laerm;47119;49.130;9.218;2023-03-23T09:14:55;56.97;48.27;66.09;;
61249;Laerm;47119;49.130;9.218;2023-03-23T09:17:25;55.75;48.42;71.08;;
61249;Laerm;47119;49.130;9.218;2023-03-23T09:19:52;57.09;49.62;70.09;;
61249;Laerm;47119;49.130;9.218;2023-03-23T09:22:19;61.64;50.04;79.59;;
61249;Laerm;47119;49.130;9.218;2023-03-23T09:24:50;54.96;49.45;67.89;;
61249;Laerm;47119;49.130;9.218;2023-03-23T09:27:19;52.12;47.65;61.51;;
61249;Laerm;47119;49.130;9.218;2023-03-23T09:29:46;55.73;49.07;67.65;;
61249;Laerm;47119;49.130;9.218;2023-03-23T09:32:14;58.91;51.51;72.51;;
61249;Laerm;47119;49.130;9.218;2023-03-23T09:34:41;56.92;52.28;66.15;;
61249;Laerm;47119;49.130;9.218;2023-03-23T09:40:58;55.97;48.27;68.16;;
61249;Laerm;47119;49.130;9.218;2023-03-23T12:23:55;55.85;44.94;74.44;;
61249;Laerm;47119;49.130;9.218;2023-03-23T13:26:39;53.78;45.46;67.48;;
61249;Laerm;47119;49.130;9.218;2023-03-23T13:29:57;54.08;44.60;65.45;;
61249;Laerm;47119;49.130;9.218;2023-03-23T13:33:50;56.00;46.60;67.85;;
61249;Laerm;47119;49.130;9.218;2023-03-23T18:53:30;56.13;41.87;72.09;;
61249;Laerm;47119;49.130;9.218;2023-03-23T18:56:05;59.31;39.78;81.49;;
61249;Laerm;47119;49.130;9.218;2023-03-23T18:58:33;51.71;39.65;68.49;;
61249;Laerm;47119;49.130;9.218;2023-03-23T19:01:02;54.00;41.15;66.65;;
61249;Laerm;47119;49.130;9.218;2023-03-23T19:03:29;52.81;38.44;66.78;;
